This is the latest recevied weather packets stored in our database for station/object OE-11372. If no packets are shown the sender has not sent any weather packets the latest 10 day(s).
| Time | Temp. | Humidity | Pressure | Rain* | Wind** | Luminosity | Snow |
|---|---|---|---|---|---|---|---|
| 1787658076 | 18.33° C | 71% | 848.8 hPa | 0 mm | - | 264 W/m² | - |
| 1787657702 | 18.33° C | 70% | 848.7 hPa | 0 mm | - | 313 W/m² | - |
| 1787657102 | 18.33° C | 73% | 848.7 hPa | 0 mm | - | 708 W/m² | - |
| 1787654476 | 17.78° C | 78% | 848.7 hPa | 0 mm | - | 470 W/m² | - |
| 1787654103 | 17.78° C | 80% | 848.7 hPa | 0 mm | - | 494 W/m² | - |
| 1787652303 | 17.78° C | 76% | 848.6 hPa | 0 mm | - | 305 W/m² | - |
| 1787651702 | 17.78° C | 80% | 848.6 hPa | 0 mm | - | 297 W/m² | - |
| 1787650876 | 17.22° C | 80% | 848.6 hPa | 0 mm | - | 206 W/m² | - |
| 1787650503 | 16.67° C | 82% | 848.6 hPa | 0 mm | - | 222 W/m² | - |
| 1787649903 | 16.67° C | 83% | 848.7 hPa | 0 mm | - | 214 W/m² | - |
| 1787649075 | 16.11° C | 82% | 848.6 hPa | 0.25 mm | - | 206 W/m² | - |
| 1787648703 | 16.11° C | 81% | 848.6 hPa | 0.51 mm | - | 181 W/m² | - |
| 1787648103 | 15.56° C | 85% | 848.5 hPa | 0.51 mm | - | 181 W/m² | - |
| 1787647275 | 15.56° C | 86% | 848.5 hPa | 0.76 mm | - | 157 W/m² | - |
| 1787646903 | 15.56° C | 86% | 848.5 hPa | 0.76 mm | - | 157 W/m² | - |
| 1787646303 | 15.56° C | 86% | 848.5 hPa | 0.76 mm | - | 173 W/m² | - |
| 1787645475 | 15.56° C | 88% | 848.6 hPa | 1.02 mm | - | 173 W/m² | - |
| 1787645103 | 15.56° C | 87% | 848.6 hPa | 1.02 mm | - | 132 W/m² | - |
| 1787644503 | 15.56° C | 87% | 848.5 hPa | 0.76 mm | - | 99 W/m² | - |
| 1787643676 | 15.56° C | 87% | 848.6 hPa | 0.76 mm | - | 82 W/m² | - |
| 1787643303 | 15.56° C | 87% | 848.5 hPa | 0.51 mm | - | 58 W/m² | - |
| 1787642703 | 15.56° C | 86% | 848.4 hPa | 0.76 mm | - | 66 W/m² | - |
| 1787641876 | 15.56° C | 85% | 848.5 hPa | 0.51 mm | - | 66 W/m² | - |
| 1787641502 | 16.11° C | 81% | 848.5 hPa | 0.51 mm | - | 49 W/m² | - |
| 1787640902 | 16.67° C | 77% | 848.5 hPa | 0.25 mm | - | 25 W/m² | - |
* Rain latest hour (hover to see other rain measurements)
** Current wind speed in m/s (hover to see current wind gust speed)